sensor_id;sensor_type;location;lat;lon;timestamp;pressure;altitude;pressure_sealevel;temperature;humidity
6565;BME280;3316;44.118;27.258;2024-03-17T00:01:05;101572.06;;;7.02;100.00
6565;BME280;3316;44.118;27.258;2024-03-17T00:03:30;101551.00;;;6.96;100.00
6565;BME280;3316;44.118;27.258;2024-03-17T00:05:59;101571.25;;;7.06;100.00
6565;BME280;3316;44.118;27.258;2024-03-17T00:08:25;101565.81;;;6.95;100.00
6565;BME280;3316;44.118;27.258;2024-03-17T00:10:55;101506.81;;;6.65;100.00
6565;BME280;3316;44.118;27.258;2024-03-17T00:13:21;101534.13;;;6.80;100.00
6565;BME280;3316;44.118;27.258;2024-03-17T00:15:50;101563.34;;;7.03;100.00
6565;BME280;3316;44.118;27.258;2024-03-17T00:18:16;101552.72;;;6.95;100.00
6565;BME280;3316;44.118;27.258;2024-03-17T00:20:42;101532.38;;;6.81;100.00
6565;BME280;3316;44.118;27.258;2024-03-17T00:23:08;101552.47;;;6.82;100.00
6565;BME280;3316;44.118;27.258;2024-03-17T00:25:35;101558.78;;;6.93;100.00
6565;BME280;3316;44.118;27.258;2024-03-17T00:28:01;101556.28;;;6.99;100.00
6565;BME280;3316;44.118;27.258;2024-03-17T00:30:27;101533.28;;;6.83;100.00
6565;BME280;3316;44.118;27.258;2024-03-17T00:32:53;101538.69;;;6.90;100.00
6565;BME280;3316;44.118;27.258;2024-03-17T00:35:18;101542.00;;;6.82;100.00
6565;BME280;3316;44.118;27.258;2024-03-17T00:37:47;101556.25;;;6.97;100.00
6565;BME280;3316;44.118;27.258;2024-03-17T00:40:13;101552.63;;;6.91;100.00
6565;BME280;3316;44.118;27.258;2024-03-17T00:42:39;101562.28;;;6.93;100.00
6565;BME280;3316;44.118;27.258;2024-03-17T00:45:05;101556.28;;;6.99;100.00
6565;BME280;3316;44.118;27.258;2024-03-17T00:47:32;101554.66;;;7.04;100.00
6565;BME280;3316;44.118;27.258;2024-03-17T00:49:57;101551.81;;;6.93;100.00
6565;BME280;3316;44.118;27.258;2024-03-17T00:52:23;101550.94;;;6.94;100.00
6565;BME280;3316;44.118;27.258;2024-03-17T00:54:48;101542.88;;;6.82;100.00
6565;BME280;3316;44.118;27.258;2024-03-17T00:57:14;101549.06;;;6.86;100.00
6565;BME280;3316;44.118;27.258;2024-03-17T00:59:41;101543.69;;;6.78;100.00
6565;BME280;3316;44.118;27.258;2024-03-17T01:02:08;101534.03;;;6.76;100.00
6565;BME280;3316;44.118;27.258;2024-03-17T01:04:33;101543.81;;;6.86;100.00
6565;BME280;3316;44.118;27.258;2024-03-17T01:06:59;101541.88;;;6.76;100.00
6565;BME280;3316;44.118;27.258;2024-03-17T01:09:25;101545.38;;;6.76;100.00
6565;BME280;3316;44.118;27.258;2024-03-17T01:11:50;101467.91;;;6.38;100.00
6565;BME280;3316;44.118;27.258;2024-03-17T01:14:16;101507.72;;;6.67;100.00
6565;BME280;3316;44.118;27.258;2024-03-17T01:16:41;101511.66;;;6.47;100.00
6565;BME280;3316;44.118;27.258;2024-03-17T01:19:06;101537.06;;;6.54;100.00
6565;BME280;3316;44.118;27.258;2024-03-17T01:21:32;101526.56;;;6.51;100.00
6565;BME280;3316;44.118;27.258;2024-03-17T01:23:57;101515.16;;;6.47;100.00
6565;BME280;3316;44.118;27.258;2024-03-17T01:26:23;101502.75;;;6.37;100.00
6565;BME280;3316;44.118;27.258;2024-03-17T01:28:49;101492.31;;;6.39;100.00
6565;BME280;3316;44.118;27.258;2024-03-17T01:31:15;101525.69;;;6.52;100.00
6565;BME280;3316;44.118;27.258;2024-03-17T01:33:40;101519.66;;;6.54;100.00
6565;BME280;3316;44.118;27.258;2024-03-17T01:36:06;101526.56;;;6.51;100.00
6565;BME280;3316;44.118;27.258;2024-03-17T01:38:31;101522.16;;;6.50;100.00
6565;BME280;3316;44.118;27.258;2024-03-17T01:40:58;101460.56;;;6.20;100.00
6565;BME280;3316;44.118;27.258;2024-03-17T01:43:24;101500.16;;;6.39;100.00
6565;BME280;3316;44.118;27.258;2024-03-17T01:45:50;101519.38;;;6.41;100.00
6565;BME280;3316;44.118;27.258;2024-03-17T01:48:16;101493.72;;;6.21;100.00
6565;BME280;3316;44.118;27.258;2024-03-17T01:50:44;101519.38;;;6.41;100.00
6565;BME280;3316;44.118;27.258;2024-03-17T01:53:12;101494.69;;;6.26;100.00
6565;BME280;3316;44.118;27.258;2024-03-17T01:55:43;101527.09;;;6.35;100.00
6565;BME280;3316;44.118;27.258;2024-03-17T01:58:09;101513.88;;;6.28;100.00
6565;BME280;3316;44.118;27.258;2024-03-17T02:00:38;101446.16;;;5.97;100.00
6565;BME280;3316;44.118;27.258;2024-03-17T02:03:05;101519.22;;;6.33;100.00
6565;BME280;3316;44.118;27.258;2024-03-17T02:05:31;101520.00;;;6.29;100.00
6565;BME280;3316;44.118;27.258;2024-03-17T02:07:59;101516.47;;;6.27;100.00
6565;BME280;3316;44.118;27.258;2024-03-17T02:10:24;101515.44;;;6.19;100.00
6565;BME280;3316;44.118;27.258;2024-03-17T02:12:50;101505.72;;;6.13;100.00
6565;BME280;3316;44.118;27.258;2024-03-17T02:15:16;101530.13;;;6.14;100.00
6565;BME280;3316;44.118;27.258;2024-03-17T02:17:41;101519.63;;;6.12;100.00
6565;BME280;3316;44.118;27.258;2024-03-17T02:20:07;101490.44;;;5.91;100.00
6565;BME280;3316;44.118;27.258;2024-03-17T02:22:34;101464.91;;;5.80;100.00
6565;BME280;3316;44.118;27.258;2024-03-17T02:25:01;101529.41;;;6.21;100.00
6565;BME280;3316;44.118;27.258;2024-03-17T02:27:27;101500.97;;;5.94;100.00
6565;BME280;3316;44.118;27.258;2024-03-17T02:29:52;101542.84;;;5.99;100.00
6565;BME280;3316;44.118;27.258;2024-03-17T02:32:18;101514.38;;;5.74;100.00
6565;BME280;3316;44.118;27.258;2024-03-17T02:34:46;101534.44;;;5.76;100.00
6565;BME280;3316;44.118;27.258;2024-03-17T02:37:11;101522.81;;;5.64;100.00
6565;BME280;3316;44.118;27.258;2024-03-17T02:39:37;101510.38;;;5.52;100.00
6565;BME280;3316;44.118;27.258;2024-03-17T02:42:08;101538.59;;;5.68;100.00
6565;BME280;3316;44.118;27.258;2024-03-17T02:44:35;101472.50;;;5.32;100.00
6565;BME280;3316;44.118;27.258;2024-03-17T02:47:03;101539.50;;;5.69;100.00
6565;BME280;3316;44.118;27.258;2024-03-17T02:49:30;101511.25;;;5.53;100.00
6565;BME280;3316;44.118;27.258;2024-03-17T02:52:15;101522.81;;;5.64;100.00
6565;BME280;3316;44.118;27.258;2024-03-17T02:54:41;101528.28;;;5.73;100.00
6565;BME280;3316;44.118;27.258;2024-03-17T02:57:06;101516.00;;;5.69;100.00
6565;BME280;3316;44.118;27.258;2024-03-17T02:59:33;101522.19;;;5.74;100.00
6565;BME280;3316;44.118;27.258;2024-03-17T03:01:59;101521.44;;;5.78;100.00
6565;BME280;3316;44.118;27.258;2024-03-17T03:04:25;101487.84;;;5.56;100.00
6565;BME280;3316;44.118;27.258;2024-03-17T03:06:50;101528.19;;;5.70;100.00
6565;BME280;3316;44.118;27.258;2024-03-17T03:09:16;101524.88;;;5.75;100.00
6565;BME280;3316;44.118;27.258;2024-03-17T03:11:47;101519.69;;;5.77;100.00
6565;BME280;3316;44.118;27.258;2024-03-17T03:14:13;101522.81;;;5.64;100.00
6565;BME280;3316;44.118;27.258;2024-03-17T03:16:38;101513.03;;;5.54;100.00
6565;BME280;3316;44.118;27.258;2024-03-17T03:19:04;101528.59;;;5.51;100.00
6565;BME280;3316;44.118;27.258;2024-03-17T03:21:31;101524.06;;;5.42;100.00
6565;BME280;3316;44.118;27.258;2024-03-17T03:23:56;101516.00;;;5.33;100.00
6565;BME280;3316;44.118;27.258;2024-03-17T03:26:22;101511.22;;;5.17;100.00
6565;BME280;3316;44.118;27.258;2024-03-17T03:28:48;101514.81;;;5.20;100.00
6565;BME280;3316;44.118;27.258;2024-03-17T03:31:15;101521.16;;;5.30;100.00
6565;BME280;3316;44.118;27.258;2024-03-17T03:33:41;101526.44;;;5.33;100.00
6565;BME280;3316;44.118;27.258;2024-03-17T03:36:16;101524.66;;;5.30;100.00
6565;BME280;3316;44.118;27.258;2024-03-17T03:38:45;101512.56;;;5.34;100.00
6565;BME280;3316;44.118;27.258;2024-03-17T03:41:14;101483.53;;;5.20;100.00
6565;BME280;3316;44.118;27.258;2024-03-17T03:43:40;101507.38;;;5.35;100.00
6565;BME280;3316;44.118;27.258;2024-03-17T03:46:07;101515.19;;;5.35;100.00
6565;BME280;3316;44.118;27.258;2024-03-17T03:48:33;101433.00;;;4.83;100.00
6565;BME280;3316;44.118;27.258;2024-03-17T03:51:06;101503.50;;;5.20;100.00
6565;BME280;3316;44.118;27.258;2024-03-17T03:53:32;101519.47;;;5.32;100.00
6565;BME280;3316;44.118;27.258;2024-03-17T03:55:58;101516.03;;;5.34;100.00
6565;BME280;3316;44.118;27.258;2024-03-17T03:58:29;101519.66;;;5.39;100.00
6565;BME280;3316;44.118;27.258;2024-03-17T04:00:55;101530.97;;;5.40;100.00
6565;BME280;3316;44.118;27.258;2024-03-17T04:03:21;101516.25;;;5.42;100.00
6565;BME280;3316;44.118;27.258;2024-03-17T04:05:47;101503.91;;;5.36;100.00
6565;BME280;3316;44.118;27.258;2024-03-17T04:08:13;101491.53;;;5.28;100.00
6565;BME280;3316;44.118;27.258;2024-03-17T04:10:39;101519.03;;;5.50;100.00
6565;BME280;3316;44.118;27.258;2024-03-17T04:13:04;101519.06;;;5.51;100.00
6565;BME280;3316;44.118;27.258;2024-03-17T04:15:30;101516.47;;;5.53;100.00
6565;BME280;3316;44.118;27.258;2024-03-17T04:17:55;101515.69;;;5.55;100.00
6565;BME280;3316;44.118;27.258;2024-03-17T04:20:20;101529.78;;;5.62;100.00
6565;BME280;3316;44.118;27.258;2024-03-17T04:22:46;101500.75;;;5.50;100.00
6565;BME280;3316;44.118;27.258;2024-03-17T04:25:13;101528.78;;;5.58;100.00
6565;BME280;3316;44.118;27.258;2024-03-17T04:27:39;101522.78;;;5.61;100.00
6565;BME280;3316;44.118;27.258;2024-03-17T04:30:06;101533.63;;;5.77;100.00
6565;BME280;3316;44.118;27.258;2024-03-17T04:32:32;101521.41;;;5.76;100.00
6565;BME280;3316;44.118;27.258;2024-03-17T04:34:59;101491.56;;;5.65;100.00
6565;BME280;3316;44.118;27.258;2024-03-17T04:37:24;101500.72;;;5.84;100.00
6565;BME280;3316;44.118;27.258;2024-03-17T04:39:50;101524.22;;;6.22;100.00
6565;BME280;3316;44.118;27.258;2024-03-17T04:42:17;101530.91;;;6.52;100.00
6565;BME280;3316;44.118;27.258;2024-03-17T04:44:45;101530.09;;;6.97;100.00
6565;BME280;3316;44.118;27.258;2024-03-17T04:47:12;101501.88;;;7.29;100.00
6565;BME280;3316;44.118;27.258;2024-03-17T04:49:41;101542.31;;;8.01;100.00
6565;BME280;3316;44.118;27.258;2024-03-17T04:52:08;101523.47;;;8.27;100.00
6565;BME280;3316;44.118;27.258;2024-03-17T04:54:34;101556.75;;;9.06;100.00
6565;BME280;3316;44.118;27.258;2024-03-17T04:57:00;101563.44;;;9.65;100.00
6565;BME280;3316;44.118;27.258;2024-03-17T04:59:26;101557.56;;;9.95;100.00
6565;BME280;3316;44.118;27.258;2024-03-17T05:01:52;101564.84;;;10.33;100.00
6565;BME280;3316;44.118;27.258;2024-03-17T05:04:18;101564.94;;;10.56;100.00
6565;BME280;3316;44.118;27.258;2024-03-17T05:06:44;101569.44;;;10.84;100.00
6565;BME280;3316;44.118;27.258;2024-03-17T05:09:18;101564.28;;;11.20;100.00
6565;BME280;3316;44.118;27.258;2024-03-17T05:11:44;101574.88;;;11.81;100.00
6565;BME280;3316;44.118;27.258;2024-03-17T05:14:10;101563.44;;;12.15;100.00
6565;BME280;3316;44.118;27.258;2024-03-17T05:16:35;101583.50;;;12.64;100.00
6565;BME280;3316;44.118;27.258;2024-03-17T05:19:01;101577.16;;;13.16;100.00
6565;BME280;3316;44.118;27.258;2024-03-17T05:21:26;101542.06;;;14.04;94.83
6565;BME280;3316;44.118;27.258;2024-03-17T05:23:56;101591.34;;;14.94;84.67
6565;BME280;3316;44.118;27.258;2024-03-17T05:26:22;101587.16;;;15.44;77.15
6565;BME280;3316;44.118;27.258;2024-03-17T05:28:47;101584.53;;;15.94;72.08
6565;BME280;3316;44.118;27.258;2024-03-17T05:31:12;101588.53;;;16.21;67.93
6565;BME280;3316;44.118;27.258;2024-03-17T05:33:40;101585.25;;;16.52;65.01
6565;BME280;3316;44.118;27.258;2024-03-17T05:36:06;101580.09;;;16.43;65.55
6565;BME280;3316;44.118;27.258;2024-03-17T05:38:31;101576.16;;;16.65;65.01
6565;BME280;3316;44.118;27.258;2024-03-17T05:41:07;101583.97;;;17.14;61.53
6565;BME280;3316;44.118;27.258;2024-03-17T05:43:37;101594.72;;;17.86;57.63
6565;BME280;3316;44.118;27.258;2024-03-17T05:46:05;101597.47;;;18.50;54.13
6565;BME280;3316;44.118;27.258;2024-03-17T05:48:34;101591.19;;;19.13;52.68
6565;BME280;3316;44.118;27.258;2024-03-17T05:51:02;101603.28;;;20.33;48.13
6565;BME280;3316;44.118;27.258;2024-03-17T05:53:28;101607.19;;;21.20;46.54
6565;BME280;3316;44.118;27.258;2024-03-17T05:55:54;101598.84;;;21.51;43.79
6565;BME280;3316;44.118;27.258;2024-03-17T05:58:20;101603.78;;;21.39;43.76
6565;BME280;3316;44.118;27.258;2024-03-17T06:00:46;101604.63;;;21.62;43.54
6565;BME280;3316;44.118;27.258;2024-03-17T06:03:11;101612.19;;;21.96;42.82
6565;BME280;3316;44.118;27.258;2024-03-17T06:05:39;101615.47;;;22.02;42.48
6565;BME280;3316;44.118;27.258;2024-03-17T06:08:08;101606.56;;;22.22;42.83
6565;BME280;3316;44.118;27.258;2024-03-17T06:10:36;101606.03;;;21.94;43.14
6565;BME280;3316;44.118;27.258;2024-03-17T06:13:02;101614.91;;;21.94;43.42
6565;BME280;3316;44.118;27.258;2024-03-17T06:15:28;101585.66;;;22.30;42.46
6565;BME280;3316;44.118;27.258;2024-03-17T06:17:54;101609.81;;;22.30;42.22
6565;BME280;3316;44.118;27.258;2024-03-17T06:20:25;101610.25;;;22.61;42.11
6565;BME280;3316;44.118;27.258;2024-03-17T06:22:54;101586.34;;;22.55;41.93
6565;BME280;3316;44.118;27.258;2024-03-17T06:25:19;101607.59;;;23.37;41.15
6565;BME280;3316;44.118;27.258;2024-03-17T06:27:45;101590.06;;;24.02;39.83
6565;BME280;3316;44.118;27.258;2024-03-17T06:30:14;101616.03;;;24.37;39.08
6565;BME280;3316;44.118;27.258;2024-03-17T06:32:41;101611.28;;;24.76;39.24
6565;BME280;3316;44.118;27.258;2024-03-17T06:35:07;101613.13;;;25.08;38.07
6565;BME280;3316;44.118;27.258;2024-03-17T06:37:32;101567.09;;;26.20;36.80
6565;BME280;3316;44.118;27.258;2024-03-17T06:39:58;101600.44;;;27.19;34.82
6565;BME280;3316;44.118;27.258;2024-03-17T06:42:23;101567.09;;;26.78;34.88
6565;BME280;3316;44.118;27.258;2024-03-17T06:44:49;101610.75;;;27.55;33.89
6565;BME280;3316;44.118;27.258;2024-03-17T06:47:14;101600.69;;;27.98;33.75
6565;BME280;3316;44.118;27.258;2024-03-17T06:49:40;101591.97;;;28.84;32.27
6565;BME280;3316;44.118;27.258;2024-03-17T06:52:05;101573.81;;;28.34;32.50
6565;BME280;3316;44.118;27.258;2024-03-17T06:54:31;101624.19;;;29.14;32.08
6565;BME280;3316;44.118;27.258;2024-03-17T06:57:00;101619.31;;;29.91;30.33
6565;BME280;3316;44.118;27.258;2024-03-17T06:59:26;101616.34;;;30.87;29.70
6565;BME280;3316;44.118;27.258;2024-03-17T07:01:51;101599.66;;;30.35;29.41
6565;BME280;3316;44.118;27.258;2024-03-17T07:04:17;101612.22;;;30.82;28.97
6565;BME280;3316;44.118;27.258;2024-03-17T07:06:42;101617.09;;;30.89;28.87
6565;BME280;3316;44.118;27.258;2024-03-17T07:09:08;101625.66;;;31.40;28.07
6565;BME280;3316;44.118;27.258;2024-03-17T07:11:34;101618.91;;;30.78;28.73
6565;BME280;3316;44.118;27.258;2024-03-17T07:14:00;101614.38;;;31.11;28.41
6565;BME280;3316;44.118;27.258;2024-03-17T07:16:25;101624.25;;;31.68;27.79
6565;BME280;3316;44.118;27.258;2024-03-17T07:18:52;101594.06;;;32.34;26.87
6565;BME280;3316;44.118;27.258;2024-03-17T07:21:21;101630.53;;;31.68;26.67
6565;BME280;3316;44.118;27.258;2024-03-17T07:23:47;101582.44;;;30.58;28.22
6565;BME280;3316;44.118;27.258;2024-03-17T07:26:12;101627.72;;;30.23;28.67
6565;BME280;3316;44.118;27.258;2024-03-17T07:28:39;101628.03;;;30.07;28.74
6565;BME280;3316;44.118;27.258;2024-03-17T07:31:10;101609.94;;;29.95;29.34
6565;BME280;3316;44.118;27.258;2024-03-17T07:33:36;101626.50;;;30.50;28.64
6565;BME280;3316;44.118;27.258;2024-03-17T07:36:02;101627.44;;;30.84;28.73
6565;BME280;3316;44.118;27.258;2024-03-17T07:38:29;101624.13;;;31.14;28.83
6565;BME280;3316;44.118;27.258;2024-03-17T07:43:25;101613.19;;;32.23;27.53
6565;BME280;3316;44.118;27.258;2024-03-17T07:48:29;101608.44;;;30.95;28.49
6565;BME280;3316;44.118;27.258;2024-03-17T07:51:07;101595.94;;;31.37;28.34
6565;BME280;3316;44.118;27.258;2024-03-17T07:53:34;101614.06;;;31.81;27.90
6565;BME280;3316;44.118;27.258;2024-03-17T07:56:04;101612.50;;;32.10;27.91
6565;BME280;3316;44.118;27.258;2024-03-17T07:58:31;101605.06;;;32.12;27.51
6565;BME280;3316;44.118;27.258;2024-03-17T08:01:05;101560.59;;;31.26;28.10
6565;BME280;3316;44.118;27.258;2024-03-17T08:03:32;101607.06;;;31.67;28.28
6565;BME280;3316;44.118;27.258;2024-03-17T08:06:00;101602.03;;;31.18;28.25
6565;BME280;3316;44.118;27.258;2024-03-17T08:08:26;101589.69;;;31.03;28.41
6565;BME280;3316;44.118;27.258;2024-03-17T08:10:52;101600.16;;;31.41;28.54
6565;BME280;3316;44.118;27.258;2024-03-17T08:13:18;101592.50;;;31.46;27.87
6565;BME280;3316;44.118;27.258;2024-03-17T08:15:45;101590.03;;;31.32;28.05
6565;BME280;3316;44.118;27.258;2024-03-17T08:18:13;101599.44;;;31.17;28.55
6565;BME280;3316;44.118;27.258;2024-03-17T08:20:39;101584.22;;;30.35;29.12
6565;BME280;3316;44.118;27.258;2024-03-17T08:23:06;101590.81;;;29.97;29.46
6565;BME280;3316;44.118;27.258;2024-03-17T08:25:35;101593.69;;;29.59;30.09
6565;BME280;3316;44.118;27.258;2024-03-17T08:28:02;101597.03;;;29.62;30.30
6565;BME280;3316;44.118;27.258;2024-03-17T08:30:29;101594.53;;;29.59;30.56
6565;BME280;3316;44.118;27.258;2024-03-17T08:32:56;101568.00;;;29.16;31.18
6565;BME280;3316;44.118;27.258;2024-03-17T08:35:21;101578.75;;;28.54;31.77
6565;BME280;3316;44.118;27.258;2024-03-17T08:37:47;101583.47;;;27.72;33.29
6565;BME280;3316;44.118;27.258;2024-03-17T08:40:12;101571.94;;;27.01;33.90
6565;BME280;3316;44.118;27.258;2024-03-17T08:42:39;101558.53;;;26.72;34.22
6565;BME280;3316;44.118;27.258;2024-03-17T08:45:05;101567.09;;;25.59;35.59
6565;BME280;3316;44.118;27.258;2024-03-17T08:47:30;101534.69;;;24.49;37.43
6565;BME280;3316;44.118;27.258;2024-03-17T08:49:56;101531.84;;;23.31;39.65
6565;BME280;3316;44.118;27.258;2024-03-17T08:52:23;101550.78;;;22.70;40.84
6565;BME280;3316;44.118;27.258;2024-03-17T08:54:48;101530.50;;;22.45;41.85
6565;BME280;3316;44.118;27.258;2024-03-17T08:57:17;101497.72;;;22.18;42.68
6565;BME280;3316;44.118;27.258;2024-03-17T08:59:46;101531.78;;;21.96;43.91
6565;BME280;3316;44.118;27.258;2024-03-17T09:02:13;101559.22;;;21.81;44.12
6565;BME280;3316;44.118;27.258;2024-03-17T09:04:40;101547.00;;;21.74;43.18
6565;BME280;3316;44.118;27.258;2024-03-17T09:07:05;101544.81;;;21.62;42.66
6565;BME280;3316;44.118;27.258;2024-03-17T09:09:31;101508.34;;;21.16;44.30
6565;BME280;3316;44.118;27.258;2024-03-17T09:11:57;101513.28;;;21.03;44.20
6565;BME280;3316;44.118;27.258;2024-03-17T09:14:22;101539.91;;;21.30;43.81
6565;BME280;3316;44.118;27.258;2024-03-17T09:16:48;101539.75;;;20.88;44.22
6565;BME280;3316;44.118;27.258;2024-03-17T09:19:14;101531.25;;;20.77;44.40
6565;BME280;3316;44.118;27.258;2024-03-17T09:21:39;101523.41;;;20.72;45.18
6565;BME280;3316;44.118;27.258;2024-03-17T09:24:06;101530.25;;;20.79;44.76
6565;BME280;3316;44.118;27.258;2024-03-17T09:26:35;101501.41;;;20.41;45.42
6565;BME280;3316;44.118;27.258;2024-03-17T09:29:01;101524.44;;;20.45;46.45
6565;BME280;3316;44.118;27.258;2024-03-17T09:31:26;101518.88;;;20.51;45.58
6565;BME280;3316;44.118;27.258;2024-03-17T09:33:52;101516.16;;;20.28;46.21
6565;BME280;3316;44.118;27.258;2024-03-17T09:36:18;101520.75;;;20.24;46.50
6565;BME280;3316;44.118;27.258;2024-03-17T09:38:43;101503.56;;;20.31;46.37
6565;BME280;3316;44.118;27.258;2024-03-17T09:41:25;101489.56;;;20.48;45.76
6565;BME280;3316;44.118;27.258;2024-03-17T09:43:55;101500.38;;;20.45;45.91
6565;BME280;3316;44.118;27.258;2024-03-17T09:46:23;101503.72;;;20.27;46.24
6565;BME280;3316;44.118;27.258;2024-03-17T09:48:49;101504.31;;;20.35;46.41
6565;BME280;3316;44.118;27.258;2024-03-17T09:51:20;101507.22;;;20.52;46.71
6565;BME280;3316;44.118;27.258;2024-03-17T09:53:46;101501.25;;;20.46;45.69
6565;BME280;3316;44.118;27.258;2024-03-17T09:56:14;101503.13;;;20.67;45.93
6565;BME280;3316;44.118;27.258;2024-03-17T09:58:41;101501.59;;;20.83;45.37
6565;BME280;3316;44.118;27.258;2024-03-17T10:01:07;101488.16;;;20.84;43.89
6565;BME280;3316;44.118;27.258;2024-03-17T10:03:45;101491.78;;;20.60;44.47
6565;BME280;3316;44.118;27.258;2024-03-17T10:06:15;101470.13;;;20.20;45.76
6565;BME280;3316;44.118;27.258;2024-03-17T10:08:48;101462.75;;;20.02;45.53
6565;BME280;3316;44.118;27.258;2024-03-17T10:11:16;101488.88;;;20.43;45.22
6565;BME280;3316;44.118;27.258;2024-03-17T10:13:43;101455.16;;;20.14;45.48
6565;BME280;3316;44.118;27.258;2024-03-17T10:16:38;101484.44;;;20.17;46.42
6565;BME280;3316;44.118;27.258;2024-03-17T10:19:24;101466.88;;;20.35;46.05
6565;BME280;3316;44.118;27.258;2024-03-17T10:21:50;101478.91;;;20.23;45.62
6565;BME280;3316;44.118;27.258;2024-03-17T10:24:24;101481.53;;;20.48;45.81
6565;BME280;3316;44.118;27.258;2024-03-17T10:26:57;101475.91;;;20.79;44.74
6565;BME280;3316;44.118;27.258;2024-03-17T10:29:31;101458.69;;;20.63;44.58
6565;BME280;3316;44.118;27.258;2024-03-17T10:32:01;101477.88;;;20.74;44.50
6565;BME280;3316;44.118;27.258;2024-03-17T10:34:28;101471.28;;;20.11;44.41
6565;BME280;3316;44.118;27.258;2024-03-17T10:37:13;101471.50;;;20.05;45.16
6565;BME280;3316;44.118;27.258;2024-03-17T10:39:43;101460.59;;;20.11;44.74
6565;BME280;3316;44.118;27.258;2024-03-17T10:42:10;101462.72;;;20.28;45.55
6565;BME280;3316;44.118;27.258;2024-03-17T10:44:41;101447.56;;;19.79;45.70
6565;BME280;3316;44.118;27.258;2024-03-17T10:47:13;101464.34;;;19.83;45.89
6565;BME280;3316;44.118;27.258;2024-03-17T10:49:45;101456.66;;;19.98;45.34
6565;BME280;3316;44.118;27.258;2024-03-17T10:52:17;101382.63;;;19.77;44.51
6565;BME280;3316;44.118;27.258;2024-03-17T10:54:51;101440.84;;;19.92;43.84
6565;BME280;3316;44.118;27.258;2024-03-17T11:00:02;101442.69;;;19.66;43.56
6565;BME280;3316;44.118;27.258;2024-03-17T11:02:34;101434.44;;;19.47;44.67
6565;BME280;3316;44.118;27.258;2024-03-17T11:05:06;101414.53;;;19.03;45.90
6565;BME280;3316;44.118;27.258;2024-03-17T11:07:37;101426.69;;;19.12;46.37
6565;BME280;3316;44.118;27.258;2024-03-17T11:10:04;101411.19;;;18.69;46.96
6565;BME280;3316;44.118;27.258;2024-03-17T11:12:50;101357.09;;;18.65;46.23
6565;BME280;3316;44.118;27.258;2024-03-17T11:17:54;101409.00;;;19.09;45.03
6565;BME280;3316;44.118;27.258;2024-03-17T11:20:24;101410.13;;;19.28;43.54
6565;BME280;3316;44.118;27.258;2024-03-17T11:23:00;101417.66;;;19.43;44.78
6565;BME280;3316;44.118;27.258;2024-03-17T11:27:54;101397.06;;;19.47;45.04
6565;BME280;3316;44.118;27.258;2024-03-17T11:30:55;101393.09;;;19.59;44.44
6565;BME280;3316;44.118;27.258;2024-03-17T11:39:04;101391.13;;;20.11;44.52
6565;BME280;3316;44.118;27.258;2024-03-17T11:41:44;101382.88;;;19.94;44.96
6565;BME280;3316;44.118;27.258;2024-03-17T11:47:04;101385.06;;;19.59;46.19
6565;BME280;3316;44.118;27.258;2024-03-17T11:49:38;101382.59;;;19.54;45.13
6565;BME280;3316;44.118;27.258;2024-03-17T11:52:12;101381.66;;;19.55;45.12
6565;BME280;3316;44.118;27.258;2024-03-17T11:54:40;101379.47;;;19.41;45.57
6565;BME280;3316;44.118;27.258;2024-03-17T11:57:07;101370.06;;;19.30;44.34
6565;BME280;3316;44.118;27.258;2024-03-17T11:59:34;101350.06;;;19.17;44.50
6565;BME280;3316;44.118;27.258;2024-03-17T12:02:00;101353.16;;;19.29;43.43
6565;BME280;3316;44.118;27.258;2024-03-17T12:04:27;101336.88;;;19.38;43.74
6565;BME280;3316;44.118;27.258;2024-03-17T12:06:55;101364.13;;;19.48;43.40
6565;BME280;3316;44.118;27.258;2024-03-17T12:14:16;101347.06;;;19.52;43.09
6565;BME280;3316;44.118;27.258;2024-03-17T12:16:49;101350.69;;;19.74;42.76
6565;BME280;3316;44.118;27.258;2024-03-17T12:19:17;101365.13;;;19.69;43.24
6565;BME280;3316;44.118;27.258;2024-03-17T12:21:53;101360.06;;;19.61;43.18
6565;BME280;3316;44.118;27.258;2024-03-17T12:24:24;101341.28;;;19.39;43.29
6565;BME280;3316;44.118;27.258;2024-03-17T12:26:51;101342.44;;;19.32;42.88
6565;BME280;3316;44.118;27.258;2024-03-17T12:29:37;101354.75;;;19.61;43.23
6565;BME280;3316;44.118;27.258;2024-03-17T12:34:35;101353.13;;;19.31;42.97
6565;BME280;3316;44.118;27.258;2024-03-17T12:37:01;101332.81;;;19.01;43.39
6565;BME280;3316;44.118;27.258;2024-03-17T12:39:29;101338.97;;;19.29;43.24
6565;BME280;3316;44.118;27.258;2024-03-17T12:42:02;101335.59;;;19.48;43.74
6565;BME280;3316;44.118;27.258;2024-03-17T12:44:32;101333.88;;;19.47;43.80
6565;BME280;3316;44.118;27.258;2024-03-17T12:46:59;101303.97;;;19.38;43.02
6565;BME280;3316;44.118;27.258;2024-03-17T12:49:29;101325.41;;;19.35;42.42
6565;BME280;3316;44.118;27.258;2024-03-17T12:51:55;101334.34;;;19.08;42.24
6565;BME280;3316;44.118;27.258;2024-03-17T12:54:25;101281.66;;;18.90;42.48
6565;BME280;3316;44.118;27.258;2024-03-17T12:56:52;101330.03;;;19.30;42.33
6565;BME280;3316;44.118;27.258;2024-03-17T12:59:42;101310.09;;;18.89;42.59
6565;BME280;3316;44.118;27.258;2024-03-17T13:02:27;101277.75;;;18.74;43.79
6565;BME280;3316;44.118;27.258;2024-03-17T13:05:19;101315.41;;;18.64;43.70
6565;BME280;3316;44.118;27.258;2024-03-17T13:07:46;101286.16;;;18.61;43.78
6565;BME280;3316;44.118;27.258;2024-03-17T13:10:18;101291.28;;;18.67;43.77
6565;BME280;3316;44.118;27.258;2024-03-17T13:12:45;101316.53;;;18.84;44.51
6565;BME280;3316;44.118;27.258;2024-03-17T13:15:16;101296.88;;;18.60;44.32
6565;BME280;3316;44.118;27.258;2024-03-17T13:17:45;101316.69;;;18.51;43.72
6565;BME280;3316;44.118;27.258;2024-03-17T13:20:15;101300.22;;;18.37;44.78
6565;BME280;3316;44.118;27.258;2024-03-17T13:22:44;101286.66;;;18.46;44.05
6565;BME280;3316;44.118;27.258;2024-03-17T13:25:16;101311.28;;;18.54;44.43
6565;BME280;3316;44.118;27.258;2024-03-17T13:27:45;101299.78;;;18.52;43.71
6565;BME280;3316;44.118;27.258;2024-03-17T13:30:19;101297.75;;;18.60;44.49
6565;BME280;3316;44.118;27.258;2024-03-17T13:32:46;101306.16;;;18.75;45.03